Gosberton, United Kingdom
Current Conditions -  °F | °C
As of 8:50 AM on Friday 31 Oct 2014 (Local Time) from EGXC Reporting Station
Haze Haze  
Wind Chill: 14°   Ceiling: 400
Heat Index: 14°   Visibility: 2.1mi
Dew Point: 13°   Wind: 6mph
Humidity: 94%   Direction: 160°SSE
Pressure: 30"   Gusts: NA
Location:  52.87°N, 0.16°W
Report Text: EGXC 310850Z 16005KT 3500 BR OVC004 14/13 Q1016 YLO2 BECMG 7000 HZ FEW004 WHT
Loading
Personal Weather Stations






























Interactive Weather Map
Tropical Storm Tracking
New forecast layout! Learn more

10-Day Weather Forecast

Advertisements
Track Severe Weather on mobile